sensor_id;sensor_type;location;lat;lon;timestamp;pressure;altitude;pressure_sealevel;temperature;humidity
75794;BME280;64418;47.536;19.074;2023-04-08T00:01:58;100544.47;;;2.99;100.00
75794;BME280;64418;47.536;19.074;2023-04-08T00:04:26;100540.81;;;3.00;100.00
75794;BME280;64418;47.536;19.074;2023-04-08T00:06:52;100546.56;;;3.05;100.00
75794;BME280;64418;47.536;19.074;2023-04-08T00:09:17;100546.91;;;3.10;100.00
75794;BME280;64418;47.536;19.074;2023-04-08T00:11:43;100534.09;;;2.96;100.00
75794;BME280;64418;47.536;19.074;2023-04-08T00:14:09;100532.72;;;2.91;100.00
75794;BME280;64418;47.536;19.074;2023-04-08T00:16:34;100540.47;;;2.95;100.00
75794;BME280;64418;47.536;19.074;2023-04-08T00:19:00;100543.81;;;2.97;100.00
75794;BME280;64418;47.536;19.074;2023-04-08T00:21:27;100542.72;;;3.07;100.00
75794;BME280;64418;47.536;19.074;2023-04-08T00:23:53;100543.88;;;3.05;100.00
75794;BME280;64418;47.536;19.074;2023-04-08T00:26:19;100545.25;;;3.09;100.00
75794;BME280;64418;47.536;19.074;2023-04-08T00:28:45;100543.50;;;3.00;100.00
75794;BME280;64418;47.536;19.074;2023-04-08T00:31:12;100547.56;;;3.04;100.00
75794;BME280;64418;47.536;19.074;2023-04-08T00:33:38;100549.59;;;3.10;100.00
75794;BME280;64418;47.536;19.074;2023-04-08T00:36:04;100543.78;;;3.14;100.00
75794;BME280;64418;47.536;19.074;2023-04-08T00:38:31;100549.37;;;3.21;100.00
75794;BME280;64418;47.536;19.074;2023-04-08T00:40:57;100548.69;;;3.19;100.00
75794;BME280;64418;47.536;19.074;2023-04-08T00:43:23;100537.34;;;3.25;100.00
75794;BME280;64418;47.536;19.074;2023-04-08T00:45:49;100542.41;;;3.28;100.00
75794;BME280;64418;47.536;19.074;2023-04-08T00:48:15;100545.69;;;3.22;100.00
75794;BME280;64418;47.536;19.074;2023-04-08T00:50:42;100544.06;;;3.29;100.00
75794;BME280;64418;47.536;19.074;2023-04-08T00:53:08;100543.41;;;3.27;100.00
75794;BME280;64418;47.536;19.074;2023-04-08T00:55:36;100553.13;;;3.28;100.00
75794;BME280;64418;47.536;19.074;2023-04-08T00:58:03;100541.63;;;3.18;100.00
75794;BME280;64418;47.536;19.074;2023-04-08T01:00:29;100554.94;;;3.27;100.00
75794;BME280;64418;47.536;19.074;2023-04-08T01:03:04;100543.25;;;3.28;100.00
75794;BME280;64418;47.536;19.074;2023-04-08T01:05:38;100547.69;;;3.20;100.00
75794;BME280;64418;47.536;19.074;2023-04-08T01:08:09;100556.03;;;3.17;100.00
75794;BME280;64418;47.536;19.074;2023-04-08T01:10:40;100562.47;;;3.24;100.00
75794;BME280;64418;47.536;19.074;2023-04-08T01:13:08;100548.38;;;3.22;100.00
75794;BME280;64418;47.536;19.074;2023-04-08T01:15:37;100514.16;;;2.90;100.00
75794;BME280;64418;47.536;19.074;2023-04-08T01:18:07;100547.25;;;3.07;100.00
75794;BME280;64418;47.536;19.074;2023-04-08T01:20:34;100548.94;;;3.08;100.00
75794;BME280;64418;47.536;19.074;2023-04-08T01:23:05;100548.81;;;3.17;100.00
75794;BME280;64418;47.536;19.074;2023-04-08T01:25:36;100531.25;;;3.15;100.00
75794;BME280;64418;47.536;19.074;2023-04-08T01:28:06;100555.50;;;3.13;100.00
75794;BME280;64418;47.536;19.074;2023-04-08T01:30:33;100555.97;;;3.09;100.00
75794;BME280;64418;47.536;19.074;2023-04-08T01:33:01;100558.56;;;3.01;100.00
75794;BME280;64418;47.536;19.074;2023-04-08T01:35:29;100553.06;;;3.20;100.00
75794;BME280;64418;47.536;19.074;2023-04-08T01:37:58;100549.25;;;3.05;100.00
75794;BME280;64418;47.536;19.074;2023-04-08T01:40:25;100554.34;;;3.16;100.00
75794;BME280;64418;47.536;19.074;2023-04-08T01:42:55;100496.22;;;2.82;100.00
75794;BME280;64418;47.536;19.074;2023-04-08T01:45:24;100549.00;;;3.16;100.00
75794;BME280;64418;47.536;19.074;2023-04-08T01:47:52;100544.94;;;3.12;100.00
75794;BME280;64418;47.536;19.074;2023-04-08T01:50:19;100553.91;;;3.20;100.00
75794;BME280;64418;47.536;19.074;2023-04-08T01:52:48;100549.06;;;3.24;100.00
75794;BME280;64418;47.536;19.074;2023-04-08T01:55:15;100546.31;;;3.16;100.00
75794;BME280;64418;47.536;19.074;2023-04-08T01:57:43;100547.38;;;3.23;100.00
75794;BME280;64418;47.536;19.074;2023-04-08T02:00:12;100550.31;;;3.12;100.00
75794;BME280;64418;47.536;19.074;2023-04-08T02:02:42;100536.31;;;3.00;100.00
75794;BME280;64418;47.536;19.074;2023-04-08T02:05:09;100550.31;;;3.12;100.00
75794;BME280;64418;47.536;19.074;2023-04-08T02:07:35;100549.25;;;3.05;100.00
75794;BME280;64418;47.536;19.074;2023-04-08T02:10:01;100549.78;;;3.08;100.00
75794;BME280;64418;47.536;19.074;2023-04-08T02:12:28;100551.53;;;3.00;100.00
75794;BME280;64418;47.536;19.074;2023-04-08T02:14:54;100552.69;;;2.79;100.00
75794;BME280;64418;47.536;19.074;2023-04-08T02:17:24;100556.66;;;2.93;100.00
75794;BME280;64418;47.536;19.074;2023-04-08T02:19:55;100548.19;;;2.98;100.00
75794;BME280;64418;47.536;19.074;2023-04-08T02:22:28;100556.44;;;2.86;100.00
75794;BME280;64418;47.536;19.074;2023-04-08T02:24:57;100545.41;;;2.89;100.00
75794;BME280;64418;47.536;19.074;2023-04-08T02:27:27;100543.34;;;3.01;100.00
75794;BME280;64418;47.536;19.074;2023-04-08T02:29:55;100514.22;;;2.80;100.00
75794;BME280;64418;47.536;19.074;2023-04-08T02:32:22;100541.00;;;2.98;100.00
75794;BME280;64418;47.536;19.074;2023-04-08T02:34:53;100542.34;;;3.02;100.00
75794;BME280;64418;47.536;19.074;2023-04-08T02:37:19;100541.75;;;3.08;100.00
75794;BME280;64418;47.536;19.074;2023-04-08T02:39:46;100544.56;;;3.07;100.00
75794;BME280;64418;47.536;19.074;2023-04-08T02:42:12;100542.66;;;2.99;100.00
75794;BME280;64418;47.536;19.074;2023-04-08T02:44:38;100547.56;;;3.04;100.00
75794;BME280;64418;47.536;19.074;2023-04-08T02:47:03;100536.38;;;3.08;100.00
75794;BME280;64418;47.536;19.074;2023-04-08T02:49:29;100545.25;;;3.09;100.00
75794;BME280;64418;47.536;19.074;2023-04-08T02:51:57;100548.41;;;3.04;100.00
75794;BME280;64418;47.536;19.074;2023-04-08T02:54:23;100543.88;;;3.05;100.00
75794;BME280;64418;47.536;19.074;2023-04-08T02:56:49;100544.25;;;2.92;100.00
75794;BME280;64418;47.536;19.074;2023-04-08T02:59:15;100538.47;;;2.97;100.00
75794;BME280;64418;47.536;19.074;2023-04-08T03:01:42;100539.75;;;2.92;100.00
75794;BME280;64418;47.536;19.074;2023-04-08T03:04:08;100542.34;;;2.84;100.00
75794;BME280;64418;47.536;19.074;2023-04-08T03:06:34;100547.78;;;2.92;100.00
75794;BME280;64418;47.536;19.074;2023-04-08T03:09:03;100549.78;;;2.90;100.00
75794;BME280;64418;47.536;19.074;2023-04-08T03:11:30;100543.66;;;2.98;100.00
75794;BME280;64418;47.536;19.074;2023-04-08T03:13:56;100542.13;;;2.96;100.00
75794;BME280;64418;47.536;19.074;2023-04-08T03:16:23;100550.53;;;3.01;100.00
75794;BME280;64418;47.536;19.074;2023-04-08T03:18:50;100553.75;;;3.04;100.00
75794;BME280;64418;47.536;19.074;2023-04-08T03:21:16;100550.94;;;3.06;100.00
75794;BME280;64418;47.536;19.074;2023-04-08T03:23:42;100543.56;;;3.08;100.00
75794;BME280;64418;47.536;19.074;2023-04-08T03:26:10;100556.81;;;3.09;100.00
75794;BME280;64418;47.536;19.074;2023-04-08T03:28:37;100556.56;;;3.03;100.00
75794;BME280;64418;47.536;19.074;2023-04-08T03:31:04;100559.94;;;3.05;100.00
75794;BME280;64418;47.536;19.074;2023-04-08T03:33:31;100562.97;;;3.10;100.00
75794;BME280;64418;47.536;19.074;2023-04-08T03:36:03;100567.22;;;2.95;100.00
75794;BME280;64418;47.536;19.074;2023-04-08T03:38:29;100559.19;;;2.95;100.00
75794;BME280;64418;47.536;19.074;2023-04-08T03:40:55;100566.59;;;3.01;100.00
75794;BME280;64418;47.536;19.074;2023-04-08T03:43:23;100564.53;;;2.95;100.00
75794;BME280;64418;47.536;19.074;2023-04-08T03:45:49;100562.94;;;3.02;100.00
75794;BME280;64418;47.536;19.074;2023-04-08T03:48:15;100569.28;;;3.01;100.00
75794;BME280;64418;47.536;19.074;2023-04-08T03:50:41;100564.59;;;2.85;100.00
75794;BME280;64418;47.536;19.074;2023-04-08T03:53:07;100565.75;;;2.82;100.00
75794;BME280;64418;47.536;19.074;2023-04-08T03:55:34;100564.91;;;2.82;100.00
75794;BME280;64418;47.536;19.074;2023-04-08T03:57:59;100526.22;;;2.59;100.00
75794;BME280;64418;47.536;19.074;2023-04-08T04:00:27;100585.69;;;2.88;100.00
75794;BME280;64418;47.536;19.074;2023-04-08T04:02:53;100583.56;;;2.91;100.00
75794;BME280;64418;47.536;19.074;2023-04-08T04:05:20;100581.62;;;2.66;100.00
75794;BME280;64418;47.536;19.074;2023-04-08T04:07:46;100580.66;;;2.67;100.00
75794;BME280;64418;47.536;19.074;2023-04-08T04:10:12;100590.94;;;2.62;100.00
75794;BME280;64418;47.536;19.074;2023-04-08T04:12:39;100583.63;;;2.64;100.00
75794;BME280;64418;47.536;19.074;2023-04-08T04:15:06;100586.37;;;2.72;100.00
75794;BME280;64418;47.536;19.074;2023-04-08T04:17:34;100589.75;;;2.74;100.00
75794;BME280;64418;47.536;19.074;2023-04-08T04:20:03;100596.63;;;2.77;100.00
75794;BME280;64418;47.536;19.074;2023-04-08T04:22:29;100588.47;;;2.78;100.00
75794;BME280;64418;47.536;19.074;2023-04-08T04:24:54;100590.16;;;2.79;100.00
75794;BME280;64418;47.536;19.074;2023-04-08T04:27:21;100588.59;;;2.77;100.00
75794;BME280;64418;47.536;19.074;2023-04-08T04:29:47;100596.03;;;2.83;100.00
75794;BME280;64418;47.536;19.074;2023-04-08T04:32:14;100594.66;;;2.79;100.00
75794;BME280;64418;47.536;19.074;2023-04-08T04:34:41;100588.53;;;2.86;100.00
75794;BME280;64418;47.536;19.074;2023-04-08T04:37:08;100596.66;;;2.95;100.00
75794;BME280;64418;47.536;19.074;2023-04-08T04:39:35;100598.19;;;2.97;100.00
75794;BME280;64418;47.536;19.074;2023-04-08T04:42:02;100594.13;;;2.93;100.00
75794;BME280;64418;47.536;19.074;2023-04-08T04:44:28;100602.50;;;2.80;100.00
75794;BME280;64418;47.536;19.074;2023-04-08T04:46:54;100603.53;;;2.79;100.00
75794;BME280;64418;47.536;19.074;2023-04-08T04:49:21;100607.09;;;2.88;100.00
75794;BME280;64418;47.536;19.074;2023-04-08T04:51:48;100603.56;;;2.87;100.00
75794;BME280;64418;47.536;19.074;2023-04-08T04:54:14;100602.59;;;2.88;100.00
75794;BME280;64418;47.536;19.074;2023-04-08T04:56:40;100602.47;;;2.90;100.00
75794;BME280;64418;47.536;19.074;2023-04-08T04:59:06;100609.56;;;2.99;100.00
75794;BME280;64418;47.536;19.074;2023-04-08T05:01:31;100606.28;;;3.05;100.00
75794;BME280;64418;47.536;19.074;2023-04-08T05:03:57;100610.63;;;3.24;100.00
75794;BME280;64418;47.536;19.074;2023-04-08T05:06:23;100592.28;;;2.94;100.00
75794;BME280;64418;47.536;19.074;2023-04-08T05:08:50;100608.88;;;3.15;100.00
75794;BME280;64418;47.536;19.074;2023-04-08T05:11:16;100611.25;;;3.18;100.00
75794;BME280;64418;47.536;19.074;2023-04-08T05:13:41;100616.84;;;3.24;100.00
75794;BME280;64418;47.536;19.074;2023-04-08T05:16:07;100614.22;;;3.32;100.00
75794;BME280;64418;47.536;19.074;2023-04-08T05:18:33;100618.50;;;3.43;100.00
75794;BME280;64418;47.536;19.074;2023-04-08T05:20:59;100618.41;;;3.17;100.00
75794;BME280;64418;47.536;19.074;2023-04-08T05:23:24;100619.41;;;3.34;100.00
75794;BME280;64418;47.536;19.074;2023-04-08T05:25:52;100619.87;;;3.47;100.00
75794;BME280;64418;47.536;19.074;2023-04-08T05:28:17;100625.53;;;3.44;100.00
75794;BME280;64418;47.536;19.074;2023-04-08T05:30:48;100625.09;;;3.31;100.00
75794;BME280;64418;47.536;19.074;2023-04-08T05:33:13;100631.66;;;3.54;100.00
75794;BME280;64418;47.536;19.074;2023-04-08T05:35:39;100637.13;;;3.70;100.00
75794;BME280;64418;47.536;19.074;2023-04-08T05:38:05;100635.78;;;3.66;100.00
75794;BME280;64418;47.536;19.074;2023-04-08T05:40:32;100639.88;;;3.78;100.00
75794;BME280;64418;47.536;19.074;2023-04-08T05:43:00;100639.75;;;3.62;100.00
75794;BME280;64418;47.536;19.074;2023-04-08T05:45:27;100646.25;;;3.77;100.00
75794;BME280;64418;47.536;19.074;2023-04-08T05:47:52;100637.25;;;3.86;100.00
75794;BME280;64418;47.536;19.074;2023-04-08T05:50:18;100646.59;;;3.82;100.00
75794;BME280;64418;47.536;19.074;2023-04-08T05:52:44;100644.22;;;3.79;100.00
75794;BME280;64418;47.536;19.074;2023-04-08T05:55:11;100635.56;;;3.85;100.00
75794;BME280;64418;47.536;19.074;2023-04-08T05:57:37;100641.66;;;3.70;100.00
75794;BME280;64418;47.536;19.074;2023-04-08T06:00:06;100644.91;;;3.81;100.00
75794;BME280;64418;47.536;19.074;2023-04-08T06:02:32;100649.22;;;3.74;100.00
75794;BME280;64418;47.536;19.074;2023-04-08T06:04:58;100655.06;;;3.70;100.00
75794;BME280;64418;47.536;19.074;2023-04-08T06:07:24;100658.75;;;3.95;100.00
75794;BME280;64418;47.536;19.074;2023-04-08T06:09:50;100654.59;;;4.00;100.00
75794;BME280;64418;47.536;19.074;2023-04-08T06:12:16;100651.59;;;4.03;100.00
75794;BME280;64418;47.536;19.074;2023-04-08T06:14:41;100652.75;;;4.01;100.00
75794;BME280;64418;47.536;19.074;2023-04-08T06:17:08;100653.03;;;4.15;100.00
75794;BME280;64418;47.536;19.074;2023-04-08T06:19:34;100655.47;;;4.09;100.00
75794;BME280;64418;47.536;19.074;2023-04-08T06:21:59;100654.16;;;4.13;100.00
75794;BME280;64418;47.536;19.074;2023-04-08T06:24:26;100659.41;;;3.97;100.00
75794;BME280;64418;47.536;19.074;2023-04-08T06:26:52;100660.13;;;3.99;100.00
75794;BME280;64418;47.536;19.074;2023-04-08T06:29:18;100667.91;;;4.10;100.00
75794;BME280;64418;47.536;19.074;2023-04-08T06:31:44;100670.44;;;3.94;100.00
75794;BME280;64418;47.536;19.074;2023-04-08T06:34:12;100671.94;;;4.14;100.00
75794;BME280;64418;47.536;19.074;2023-04-08T06:36:38;100676.59;;;4.12;100.00
75794;BME280;64418;47.536;19.074;2023-04-08T06:39:03;100680.25;;;4.03;100.00
75794;BME280;64418;47.536;19.074;2023-04-08T06:41:29;100676.88;;;4.01;100.00
75794;BME280;64418;47.536;19.074;2023-04-08T06:43:55;100676.19;;;3.99;100.00
75794;BME280;64418;47.536;19.074;2023-04-08T06:46:20;100675.47;;;3.88;100.00
75794;BME280;64418;47.536;19.074;2023-04-08T06:48:46;100686.97;;;4.07;100.00
75794;BME280;64418;47.536;19.074;2023-04-08T06:51:13;100679.53;;;4.01;100.00
75794;BME280;64418;47.536;19.074;2023-04-08T06:53:39;100683.50;;;4.14;100.00
75794;BME280;64418;47.536;19.074;2023-04-08T06:56:06;100688.09;;;4.22;100.00
75794;BME280;64418;47.536;19.074;2023-04-08T06:58:31;100687.13;;;4.31;100.00
75794;BME280;64418;47.536;19.074;2023-04-08T07:00:58;100685.81;;;4.35;100.00
75794;BME280;64418;47.536;19.074;2023-04-08T07:03:24;100697.06;;;4.13;100.00
75794;BME280;64418;47.536;19.074;2023-04-08T07:05:50;100694.50;;;4.29;100.00
75794;BME280;64418;47.536;19.074;2023-04-08T07:08:18;100690.78;;;4.22;100.00
75794;BME280;64418;47.536;19.074;2023-04-08T07:10:44;100695.34;;;4.29;100.00
75794;BME280;64418;47.536;19.074;2023-04-08T07:13:09;100694.03;;;4.33;100.00
75794;BME280;64418;47.536;19.074;2023-04-08T07:15:35;100692.59;;;4.47;100.00
75794;BME280;64418;47.536;19.074;2023-04-08T07:18:01;100685.13;;;5.09;100.00
75794;BME280;64418;47.536;19.074;2023-04-08T07:20:27;100693.50;;;4.98;100.00
75794;BME280;64418;47.536;19.074;2023-04-08T07:22:52;100692.06;;;4.77;100.00
75794;BME280;64418;47.536;19.074;2023-04-08T07:25:19;100700.06;;;4.69;100.00
75794;BME280;64418;47.536;19.074;2023-04-08T07:27:45;100701.34;;;4.57;100.00
75794;BME280;64418;47.536;19.074;2023-04-08T07:30:11;100708.44;;;4.66;100.00
75794;BME280;64418;47.536;19.074;2023-04-08T07:32:37;100702.25;;;4.66;100.00
75794;BME280;64418;47.536;19.074;2023-04-08T07:35:03;100710.88;;;4.85;100.00
75794;BME280;64418;47.536;19.074;2023-04-08T07:37:29;100709.34;;;4.75;100.00
75794;BME280;64418;47.536;19.074;2023-04-08T07:39:55;100714.56;;;4.84;100.00
75794;BME280;64418;47.536;19.074;2023-04-08T07:42:23;100717.75;;;4.88;100.00
75794;BME280;64418;47.536;19.074;2023-04-08T07:44:49;100728.59;;;4.70;100.00
75794;BME280;64418;47.536;19.074;2023-04-08T07:47:14;100732.59;;;4.66;100.00
75794;BME280;64418;47.536;19.074;2023-04-08T07:49:40;100724.31;;;4.85;100.00
75794;BME280;64418;47.536;19.074;2023-04-08T07:52:06;100732.78;;;5.07;100.00
75794;BME280;64418;47.536;19.074;2023-04-08T07:54:32;100741.16;;;5.04;100.00
75794;BME280;64418;47.536;19.074;2023-04-08T07:56:58;100739.78;;;5.00;100.00
75794;BME280;64418;47.536;19.074;2023-04-08T07:59:25;100733.72;;;4.90;100.00
75794;BME280;64418;47.536;19.074;2023-04-08T08:01:51;100746.78;;;4.84;100.00
75794;BME280;64418;47.536;19.074;2023-04-08T08:04:17;100736.38;;;4.81;100.00
75794;BME280;64418;47.536;19.074;2023-04-08T08:06:42;100743.81;;;4.96;100.00
75794;BME280;64418;47.536;19.074;2023-04-08T08:09:08;100739.34;;;5.12;100.00
75794;BME280;64418;47.536;19.074;2023-04-08T08:11:35;100736.84;;;5.19;100.00
75794;BME280;64418;47.536;19.074;2023-04-08T08:14:01;100749.28;;;5.20;100.00
75794;BME280;64418;47.536;19.074;2023-04-08T08:16:29;100745.09;;;5.17;100.00
75794;BME280;64418;47.536;19.074;2023-04-08T08:18:54;100744.28;;;5.41;100.00
75794;BME280;64418;47.536;19.074;2023-04-08T08:21:20;100742.63;;;5.48;100.00
75794;BME280;64418;47.536;19.074;2023-04-08T08:23:46;100755.25;;;5.64;100.00
75794;BME280;64418;47.536;19.074;2023-04-08T08:26:12;100751.19;;;5.52;100.00
75794;BME280;64418;47.536;19.074;2023-04-08T08:28:38;100746.66;;;5.52;100.00
75794;BME280;64418;47.536;19.074;2023-04-08T08:31:04;100756.06;;;5.48;100.00
75794;BME280;64418;47.536;19.074;2023-04-08T08:33:32;100762.22;;;5.91;100.00
75794;BME280;64418;47.536;19.074;2023-04-08T08:35:59;100753.25;;;5.82;100.00
75794;BME280;64418;47.536;19.074;2023-04-08T08:38:25;100761.22;;;6.08;100.00
75794;BME280;64418;47.536;19.074;2023-04-08T08:40:53;100759.53;;;6.31;99.66
75794;BME280;64418;47.536;19.074;2023-04-08T08:43:18;100761.22;;;6.00;99.30
75794;BME280;64418;47.536;19.074;2023-04-08T08:45:44;100755.13;;;5.73;100.00
75794;BME280;64418;47.536;19.074;2023-04-08T08:48:10;100765.94;;;6.38;99.18
75794;BME280;64418;47.536;19.074;2023-04-08T08:50:41;100768.19;;;5.60;100.00
75794;BME280;64418;47.536;19.074;2023-04-08T08:53:07;100768.66;;;5.48;100.00
75794;BME280;64418;47.536;19.074;2023-04-08T08:55:33;100776.44;;;5.67;100.00
75794;BME280;64418;47.536;19.074;2023-04-08T08:58:02;100775.28;;;5.69;100.00
75794;BME280;64418;47.536;19.074;2023-04-08T09:00:32;100766.25;;;5.95;100.00
75794;BME280;64418;47.536;19.074;2023-04-08T09:03:13;100773.47;;;5.94;100.00
75794;BME280;64418;47.536;19.074;2023-04-08T09:05:48;100784.50;;;5.59;100.00
75794;BME280;64418;47.536;19.074;2023-04-08T09:08:28;100783.72;;;6.31;99.57
75794;BME280;64418;47.536;19.074;2023-04-08T09:10:55;100752.56;;;5.64;100.00
75794;BME280;64418;47.536;19.074;2023-04-08T09:13:21;100786.06;;;6.58;98.22
75794;BME280;64418;47.536;19.074;2023-04-08T09:16:01;100798.16;;;6.70;98.43
75794;BME280;64418;47.536;19.074;2023-04-08T09:18:27;100795.22;;;7.04;96.59
75794;BME280;64418;47.536;19.074;2023-04-08T09:20:55;100793.06;;;6.84;97.24
75794;BME280;64418;47.536;19.074;2023-04-08T09:23:23;100802.97;;;6.99;96.79
75794;BME280;64418;47.536;19.074;2023-04-08T09:25:49;100803.19;;;6.90;97.76
75794;BME280;64418;47.536;19.074;2023-04-08T09:28:20;100806.53;;;6.92;97.85
75794;BME280;64418;47.536;19.074;2023-04-08T09:30:46;100813.31;;;6.80;97.34
75794;BME280;64418;47.536;19.074;2023-04-08T09:33:12;100810.88;;;7.09;96.91
75794;BME280;64418;47.536;19.074;2023-04-08T09:35:38;100822.16;;;6.96;96.23
75794;BME280;64418;47.536;19.074;2023-04-08T09:38:05;100809.56;;;6.97;97.11
75794;BME280;64418;47.536;19.074;2023-04-08T09:40:33;100816.16;;;6.62;96.25
75794;BME280;64418;47.536;19.074;2023-04-08T09:43:02;100815.47;;;6.76;94.43
75794;BME280;64418;47.536;19.074;2023-04-08T09:45:30;100818.69;;;6.80;94.66
75794;BME280;64418;47.536;19.074;2023-04-08T09:48:05;100812.91;;;6.99;96.17
75794;BME280;64418;47.536;19.074;2023-04-08T09:50:39;100811.25;;;6.98;95.89
75794;BME280;64418;47.536;19.074;2023-04-08T09:53:12;100821.38;;;6.80;96.03
75794;BME280;64418;47.536;19.074;2023-04-08T09:55:38;100817.03;;;6.54;93.65
75794;BME280;64418;47.536;19.074;2023-04-08T09:58:10;100806.19;;;6.95;95.93
75794;BME280;64418;47.536;19.074;2023-04-08T10:00:46;100813.59;;;6.93;96.95
75794;BME280;64418;47.536;19.074;2023-04-08T10:03:20;100821.91;;;7.30;94.90
75794;BME280;64418;47.536;19.074;2023-04-08T10:05:52;100824.09;;;7.26;93.92
75794;BME280;64418;47.536;19.074;2023-04-08T10:08:20;100824.94;;;7.27;93.12
75794;BME280;64418;47.536;19.074;2023-04-08T10:10:46;100819.87;;;7.32;93.43
75794;BME280;64418;47.536;19.074;2023-04-08T10:13:12;100825.56;;;7.37;92.82
75794;BME280;64418;47.536;19.074;2023-04-08T10:15:39;100828.56;;;7.50;92.81
75794;BME280;64418;47.536;19.074;2023-04-08T10:18:30;100821.22;;;7.36;92.92
75794;BME280;64418;47.536;19.074;2023-04-08T10:20:56;100819.87;;;7.32;92.89
75794;BME280;64418;47.536;19.074;2023-04-08T10:23:52;100829.84;;;7.62;93.13
75794;BME280;64418;47.536;19.074;2023-04-08T10:26:30;100818.91;;;7.87;92.61
75794;BME280;64418;47.536;19.074;2023-04-08T10:32:06;100822.06;;;6.65;92.40
75794;BME280;64418;47.536;19.074;2023-04-08T10:34:32;100817.66;;;6.72;97.86
75794;BME280;64418;47.536;19.074;2023-04-08T10:36:57;100828.06;;;7.47;95.49
75794;BME280;64418;47.536;19.074;2023-04-08T10:39:29;100823.41;;;5.89;100.00
75794;BME280;64418;47.536;19.074;2023-04-08T10:41:55;100816.16;;;5.39;100.00
75794;BME280;64418;47.536;19.074;2023-04-08T10:44:23;100822.53;;;5.38;100.00
75794;BME280;64418;47.536;19.074;2023-04-08T10:46:50;100819.53;;;5.41;100.00
75794;BME280;64418;47.536;19.074;2023-04-08T10:49:17;100826.50;;;5.68;100.00
75794;BME280;64418;47.536;19.074;2023-04-08T10:51:43;100818.44;;;5.68;100.00
75794;BME280;64418;47.536;19.074;2023-04-08T10:54:11;100828.09;;;5.45;100.00
75794;BME280;64418;47.536;19.074;2023-04-08T10:56:44;100826.41;;;5.36;100.00
75794;BME280;64418;47.536;19.074;2023-04-08T10:59:11;100827.16;;;5.20;100.00
75794;BME280;64418;47.536;19.074;2023-04-08T11:01:38;100825.47;;;5.19;100.00
75794;BME280;64418;47.536;19.074;2023-04-08T11:04:10;100826.59;;;5.42;100.00
75794;BME280;64418;47.536;19.074;2023-04-08T11:06:35;100833.34;;;5.54;100.00
75794;BME280;64418;47.536;19.074;2023-04-08T11:09:02;100826.38;;;5.77;100.00
75794;BME280;64418;47.536;19.074;2023-04-08T11:11:28;100825.03;;;5.81;99.38
75794;BME280;64418;47.536;19.074;2023-04-08T11:13:56;100827.78;;;6.06;100.00
75794;BME280;64418;47.536;19.074;2023-04-08T11:16:22;100826.09;;;6.13;100.00
75794;BME280;64418;47.536;19.074;2023-04-08T11:18:49;100819.06;;;6.28;100.00
75794;BME280;64418;47.536;19.074;2023-04-08T11:21:15;100824.59;;;6.10;100.00
75794;BME280;64418;47.536;19.074;2023-04-08T11:23:41;100826.91;;;5.97;100.00
75794;BME280;64418;47.536;19.074;2023-04-08T11:26:07;100816.34;;;5.46;98.13
75794;BME280;64418;47.536;19.074;2023-04-08T11:28:34;100822.44;;;5.64;99.69
75794;BME280;64418;47.536;19.074;2023-04-08T11:31:01;100828.62;;;5.56;100.00
75794;BME280;64418;47.536;19.074;2023-04-08T11:33:29;100825.47;;;5.61;98.59
75794;BME280;64418;47.536;19.074;2023-04-08T11:35:55;100826.66;;;5.58;97.97
75794;BME280;64418;47.536;19.074;2023-04-08T11:38:22;100824.97;;;5.57;96.89
75794;BME280;64418;47.536;19.074;2023-04-08T11:40:52;100826.13;;;5.55;97.19
75794;BME280;64418;47.536;19.074;2023-04-08T11:43:17;100833.41;;;5.78;99.79
75794;BME280;64418;47.536;19.074;2023-04-08T11:45:43;100828.88;;;5.79;97.91
75794;BME280;64418;47.536;19.074;2023-04-08T11:48:11;100831.44;;;5.97;99.57
75794;BME280;64418;47.536;19.074;2023-04-08T11:50:38;100825.41;;;5.87;98.42
75794;BME280;64418;47.536;19.074;2023-04-08T11:53:15;100828.78;;;5.89;96.62
75794;BME280;64418;47.536;19.074;2023-04-08T11:55:41;100828.53;;;5.82;97.44
75794;BME280;64418;47.536;19.074;2023-04-08T11:58:07;100837.28;;;5.76;96.87
75794;BME280;64418;47.536;19.074;2023-04-08T12:00:33;100832.47;;;5.96;97.56
75794;BME280;64418;47.536;19.074;2023-04-08T12:02:59;100828.75;;;5.97;95.88
75794;BME280;64418;47.536;19.074;2023-04-08T12:05:26;100819.38;;;5.93;96.72
75794;BME280;64418;47.536;19.074;2023-04-08T12:07:52;100833.50;;;6.11;96.66
75794;BME280;64418;47.536;19.074;2023-04-08T12:10:18;100822.75;;;6.19;94.89
75794;BME280;64418;47.536;19.074;2023-04-08T12:12:44;100835.88;;;6.38;97.05
75794;BME280;64418;47.536;19.074;2023-04-08T12:15:10;100824.63;;;6.26;94.84
75794;BME280;64418;47.536;19.074;2023-04-08T12:17:36;100826.13;;;6.29;94.58
75794;BME280;64418;47.536;19.074;2023-04-08T12:20:02;100828.47;;;6.40;94.93
75794;BME280;64418;47.536;19.074;2023-04-08T12:22:29;100822.06;;;6.57;95.58
75794;BME280;64418;47.536;19.074;2023-04-08T12:24:55;100831.66;;;6.68;94.41
75794;BME280;64418;47.536;19.074;2023-04-08T12:27:22;100826.44;;;6.74;94.02
75794;BME280;64418;47.536;19.074;2023-04-08T12:29:48;100819.84;;;6.77;90.89
75794;BME280;64418;47.536;19.074;2023-04-08T12:32:18;100819.97;;;7.00;95.26
75794;BME280;64418;47.536;19.074;2023-04-08T12:34:44;100817.31;;;6.84;91.88
75794;BME280;64418;47.536;19.074;2023-04-08T12:37:09;100819.97;;;7.00;91.44
75794;BME280;64418;47.536;19.074;2023-04-08T12:39:37;100810.66;;;7.10;90.71
75794;BME280;64418;47.536;19.074;2023-04-08T12:42:03;100820.91;;;7.23;91.82
75794;BME280;64418;47.536;19.074;2023-04-08T12:44:29;100817.78;;;7.50;89.24
75794;BME280;64418;47.536;19.074;2023-04-08T12:46:55;100820.06;;;7.61;90.18